Terminal Aerodrome Forecast
Issued by NWS Albany, NY

Home | Current Version | Previous Version | Text Only | Print | Product List | Glossary On
Versions: 1 2 3 4 5 6 7 8 9 10 11 12 13 14 15 16 17 18 19 20 21 22 23 24 25 26
321
FTUS41 KALY 211306 AAA
TAFPOU
TAF AMD
KPOU 211306Z 2113/2212 19004KT P6SM SCT008 OVC060
      TEMPO 2113/2115 BKN008
     FM211500 24003KT P6SM OVC012
      TEMPO 2116/2118 OVC009
     FM211800 25003KT P6SM OVC018
     FM220000 00000KT 4SM BR OVC014=

USA.gov is the U.S. government's official web portal to all federal, state and local government web resources and services.